Time;durP1;ratioP1;P1;durP2;ratioP2;P2;SDS_P1;SDS_P2;PMS_P1;PMS_P2;Temp;Humidity;BMP_temperature;BMP_pressure;BME280_temperature;BME280_humidity;BME280_pressure;Samples;Min_cycle;Max_cycle;Signal;HPM_P1;HPM_P2
2023/07/14 00:00:08;;;;;;;4.57;2.60;;;;;;;;;;5023014;28;20032;-77
2023/07/14 00:02:35;;;;;;;4.47;2.70;;;;;;;;;;5024406;28;20029;-77
2023/07/14 00:05:02;;;;;;;5.35;3.00;;;;;;;;;;5034353;28;20021;-78
2023/07/14 00:07:28;;;;;;;5.55;3.28;;;;;;;;;;5024211;28;20083;-77
2023/07/14 00:09:53;;;;;;;6.35;3.10;;;;;;;;;;5034614;28;20021;-77
2023/07/14 00:12:18;;;;;;;5.47;2.90;;;;;;;;;;5014403;28;20505;-77
2023/07/14 00:14:45;;;;;;;5.60;3.17;;;;;;;;;;5032725;28;20021;-77
2023/07/14 00:17:12;;;;;;;5.55;3.20;;;;;;;;;;5030058;28;20148;-77
2023/07/14 00:19:37;;;;;;;4.68;2.85;;;;;;;;;;5031459;28;20458;-77
2023/07/14 00:22:15;;;;;;;6.40;3.00;;;;;;;;;;5034272;28;20152;-77
2023/07/14 00:24:44;;;;;;;5.13;3.10;;;;;;;;;;5023181;28;20032;-77
2023/07/14 00:27:17;;;;;;;4.47;3.00;;;;;;;;;;5021747;28;20026;-77
2023/07/14 00:29:45;;;;;;;5.78;3.13;;;;;;;;;;5024928;28;20389;-78
2023/07/14 00:32:22;;;;;;;4.65;3.30;;;;;;;;;;5034476;28;20124;-77
2023/07/14 00:34:48;;;;;;;4.45;3.03;;;;;;;;;;5024380;28;20025;-77
2023/07/14 00:37:14;;;;;;;5.68;3.50;;;;;;;;;;5026005;28;20034;-77
2023/07/14 00:39:40;;;;;;;4.68;2.97;;;;;;;;;;5026854;28;20029;-77
2023/07/14 00:42:11;;;;;;;6.72;3.60;;;;;;;;;;5032434;28;20040;-77
2023/07/14 00:44:36;;;;;;;5.07;3.30;;;;;;;;;;5029702;28;20437;-77
2023/07/14 00:47:05;;;;;;;5.47;3.15;;;;;;;;;;5028429;28;20025;-77
2023/07/14 00:49:39;;;;;;;5.57;3.85;;;;;;;;;;5021714;28;20091;-77
2023/07/14 00:52:20;;;;;;;5.60;3.42;;;;;;;;;;5025060;28;20481;-77
2023/07/14 00:54:51;;;;;;;5.30;3.50;;;;;;;;;;5029515;28;20056;-77
2023/07/14 00:57:17;;;;;;;5.88;3.20;;;;;;;;;;5028767;28;20112;-76
2023/07/14 00:59:43;;;;;;;5.30;3.50;;;;;;;;;;5024728;28;20367;-78
2023/07/14 01:02:11;;;;;;;6.22;3.35;;;;;;;;;;5029459;28;20025;-77
2023/07/14 01:04:39;;;;;;;4.68;3.28;;;;;;;;;;5026051;28;20033;-77
2023/07/14 01:07:05;;;;;;;5.18;3.42;;;;;;;;;;5021642;28;20044;-78
2023/07/14 01:09:31;;;;;;;5.75;3.20;;;;;;;;;;5022340;28;20390;-77
2023/07/14 01:11:59;;;;;;;4.90;3.45;;;;;;;;;;5023269;28;20378;-77
2023/07/14 01:14:29;;;;;;;5.22;3.30;;;;;;;;;;5024460;28;20115;-77
2023/07/14 01:16:57;;;;;;;6.03;3.28;;;;;;;;;;5041886;28;20061;-77
2023/07/14 01:19:43;;;;;;;6.13;3.60;;;;;;;;;;5032016;28;20025;-76
2023/07/14 01:22:41;;;;;;;5.00;3.30;;;;;;;;;;5028546;28;20032;-77
2023/07/14 01:25:15;;;;;;;6.40;3.40;;;;;;;;;;5011745;28;20049;-77
2023/07/14 01:27:41;;;;;;;6.78;3.97;;;;;;;;;;5036221;28;20351;-77
2023/07/14 01:30:07;;;;;;;6.35;3.70;;;;;;;;;;5031902;28;20025;-77
2023/07/14 01:32:43;;;;;;;4.72;3.42;;;;;;;;;;5027083;28;20028;-76
2023/07/14 01:35:09;;;;;;;4.95;3.67;;;;;;;;;;5032592;28;20485;-77
2023/07/14 01:37:37;;;;;;;5.47;3.50;;;;;;;;;;5025267;28;20038;-76
2023/07/14 01:40:13;;;;;;;6.18;4.15;;;;;;;;;;5029401;28;20056;-76
2023/07/14 01:42:43;;;;;;;4.72;3.15;;;;;;;;;;5029374;28;20085;-76
2023/07/14 01:45:15;;;;;;;5.18;4.20;;;;;;;;;;5028074;28;20030;-76
2023/07/14 01:47:43;;;;;;;7.43;4.70;;;;;;;;;;5027311;28;20405;-77
2023/07/14 01:50:18;;;;;;;9.07;4.53;;;;;;;;;;5028690;28;20363;-76
2023/07/14 01:52:45;;;;;;;6.38;3.85;;;;;;;;;;5022565;28;20058;-78
2023/07/14 01:55:14;;;;;;;5.15;3.65;;;;;;;;;;5029092;28;20025;-77
2023/07/14 01:57:42;;;;;;;6.15;3.88;;;;;;;;;;5027176;28;20025;-77
2023/07/14 02:00:12;;;;;;;6.07;3.80;;;;;;;;;;5027518;28;20446;-76
2023/07/14 02:02:39;;;;;;;5.40;3.60;;;;;;;;;;5030450;28;20541;-78
2023/07/14 02:05:30;;;;;;;5.75;3.47;;;;;;;;;;5028615;28;20033;-76
2023/07/14 02:07:58;;;;;;;5.47;3.78;;;;;;;;;;5027747;28;20028;-77
2023/07/14 02:10:23;;;;;;;7.25;3.83;;;;;;;;;;5030543;28;20429;-76
2023/07/14 02:12:49;;;;;;;6.15;3.83;;;;;;;;;;5035440;28;20060;-76
2023/07/14 02:15:21;;;;;;;5.95;3.80;;;;;;;;;;5033082;28;20029;-76
2023/07/14 02:17:49;;;;;;;5.70;3.88;;;;;;;;;;5027215;28;20033;-77
2023/07/14 02:20:23;;;;;;;6.25;3.80;;;;;;;;;;5026281;28;20378;-77
2023/07/14 02:22:51;;;;;;;6.57;3.70;;;;;;;;;;5028959;28;20079;-76
2023/07/14 02:25:18;;;;;;;5.75;3.50;;;;;;;;;;5033352;28;20026;-76
2023/07/14 02:27:44;;;;;;;4.85;3.65;;;;;;;;;;5023233;28;20028;-77
2023/07/14 02:30:19;;;;;;;6.32;4.20;;;;;;;;;;5031231;28;20038;-76
2023/07/14 02:32:51;;;;;;;7.45;3.78;;;;;;;;;;5030128;28;20057;-76
2023/07/14 02:35:33;;;;;;;9.32;3.85;;;;;;;;;;5035570;28;20022;-77
2023/07/14 02:38:06;;;;;;;5.85;3.53;;;;;;;;;;5031602;28;20095;-76
2023/07/14 02:40:43;;;;;;;5.93;3.90;;;;;;;;;;5025955;28;20044;-76
2023/07/14 02:43:14;;;;;;;5.80;3.67;;;;;;;;;;5025475;28;20424;-76
2023/07/14 02:45:48;;;;;;;4.93;3.53;;;;;;;;;;5026124;28;20025;-76
2023/07/14 02:48:18;;;;;;;5.50;3.70;;;;;;;;;;5025533;28;20595;-76
2023/07/14 02:50:44;;;;;;;6.30;4.00;;;;;;;;;;5027747;28;20025;-77
2023/07/14 02:53:10;;;;;;;7.72;3.67;;;;;;;;;;5025481;28;20360;-76
2023/07/14 02:55:36;;;;;;;6.53;3.50;;;;;;;;;;5026658;28;20033;-76
2023/07/14 02:58:03;;;;;;;7.03;3.40;;;;;;;;;;5036186;28;20025;-76
2023/07/14 03:00:28;;;;;;;5.95;3.47;;;;;;;;;;5024399;28;20084;-76
2023/07/14 03:02:54;;;;;;;6.65;4.05;;;;;;;;;;5029863;28;20030;-76
2023/07/14 03:05:19;;;;;;;6.30;3.65;;;;;;;;;;5030995;28;20029;-76
2023/07/14 03:07:45;;;;;;;5.00;3.13;;;;;;;;;;5024336;28;20030;-76
2023/07/14 03:10:10;;;;;;;4.88;3.50;;;;;;;;;;5026133;28;20037;-76
2023/07/14 03:12:36;;;;;;;6.65;3.88;;;;;;;;;;5028808;28;20378;-76
2023/07/14 03:15:01;;;;;;;6.43;3.70;;;;;;;;;;5026499;28;20482;-77
2023/07/14 03:17:27;;;;;;;7.30;3.60;;;;;;;;;;5037291;28;20035;-76
2023/07/14 03:19:52;;;;;;;7.47;3.95;;;;;;;;;;5013994;28;20071;-76
2023/07/14 03:22:18;;;;;;;8.68;3.97;;;;;;;;;;5029424;28;20402;-76
2023/07/14 03:24:43;;;;;;;5.82;3.50;;;;;;;;;;5030504;28;20053;-77
2023/07/14 03:27:08;;;;;;;6.40;3.83;;;;;;;;;;5030927;28;20050;-76
2023/07/14 03:29:34;;;;;;;9.88;3.92;;;;;;;;;;5024444;28;20485;-76
2023/07/14 03:31:59;;;;;;;5.22;3.40;;;;;;;;;;5028283;28;20017;-77
2023/07/14 03:34:24;;;;;;;6.43;3.70;;;;;;;;;;5022626;28;20516;-76
2023/07/14 03:36:50;;;;;;;6.50;3.83;;;;;;;;;;5032491;28;20025;-76
2023/07/14 03:39:26;;;;;;;6.07;3.70;;;;;;;;;;5027376;28;20021;-77
2023/07/14 03:41:53;;;;;;;5.63;3.63;;;;;;;;;;5026122;28;20026;-76
2023/07/14 03:44:19;;;;;;;5.10;3.25;;;;;;;;;;5027242;28;20029;-76
2023/07/14 03:46:45;;;;;;;4.95;3.40;;;;;;;;;;5028702;28;20095;-76
2023/07/14 03:49:11;;;;;;;6.85;3.60;;;;;;;;;;5029748;28;20449;-77
2023/07/14 03:51:37;;;;;;;5.22;3.42;;;;;;;;;;5032838;28;20056;-76
2023/07/14 03:54:02;;;;;;;5.63;3.20;;;;;;;;;;5028650;28;20037;-76
2023/07/14 03:56:28;;;;;;;6.38;3.38;;;;;;;;;;5033095;28;20029;-76
2023/07/14 03:58:53;;;;;;;5.10;3.20;;;;;;;;;;5028932;28;20029;-76
2023/07/14 04:01:19;;;;;;;7.25;3.97;;;;;;;;;;5038664;28;20494;-76
2023/07/14 04:03:46;;;;;;;5.70;3.70;;;;;;;;;;5039590;28;20052;-75
2023/07/14 04:06:11;;;;;;;4.75;3.00;;;;;;;;;;5034256;28;20501;-77
2023/07/14 04:08:38;;;;;;;8.63;3.42;;;;;;;;;;5025536;28;20025;-76
2023/07/14 04:11:04;;;;;;;4.75;2.80;;;;;;;;;;5027401;28;20481;-76
2023/07/14 04:13:30;;;;;;;5.65;3.30;;;;;;;;;;5028817;28;20030;-75
2023/07/14 04:15:57;;;;;;;5.63;3.30;;;;;;;;;;5031329;28;20119;-76
2023/07/14 04:18:22;;;;;;;6.18;3.38;;;;;;;;;;5031714;28;20048;-76
2023/07/14 04:20:49;;;;;;;7.10;3.75;;;;;;;;;;5030035;28;20490;-78
2023/07/14 04:23:16;;;;;;;6.63;3.13;;;;;;;;;;5030817;28;20029;-76
2023/07/14 04:25:41;;;;;;;5.20;3.15;;;;;;;;;;5032546;28;20018;-76
2023/07/14 04:28:07;;;;;;;5.85;3.25;;;;;;;;;;5032989;28;20458;-76
2023/07/14 04:30:32;;;;;;;5.40;3.22;;;;;;;;;;5033404;28;20031;-76
2023/07/14 04:32:58;;;;;;;5.40;3.30;;;;;;;;;;5029729;28;20022;-77
2023/07/14 04:35:24;;;;;;;5.93;3.75;;;;;;;;;;5041683;28;20022;-76
2023/07/14 04:37:49;;;;;;;4.57;3.53;;;;;;;;;;5035117;28;20026;-76
2023/07/14 04:40:14;;;;;;;6.00;4.28;;;;;;;;;;5030395;28;20029;-76
2023/07/14 04:42:40;;;;;;;6.15;3.45;;;;;;;;;;5034132;28;20029;-76
2023/07/14 04:45:06;;;;;;;6.07;3.67;;;;;;;;;;5030976;28;20366;-75
2023/07/14 04:47:32;;;;;;;5.57;3.53;;;;;;;;;;5017360;28;20036;-76
2023/07/14 04:49:57;;;;;;;6.97;3.58;;;;;;;;;;5023628;28;20026;-76
2023/07/14 04:52:22;;;;;;;7.88;3.83;;;;;;;;;;5030150;28;20489;-76
2023/07/14 04:54:48;;;;;;;8.00;3.80;;;;;;;;;;5023646;28;20041;-76
2023/07/14 04:57:13;;;;;;;5.82;3.72;;;;;;;;;;5031398;28;20030;-76
2023/07/14 04:59:39;;;;;;;4.72;3.45;;;;;;;;;;5037057;28;20026;-77
2023/07/14 05:02:05;;;;;;;7.18;3.80;;;;;;;;;;5038566;28;20124;-76
2023/07/14 05:04:31;;;;;;;6.40;3.58;;;;;;;;;;5039420;28;20026;-75
2023/07/14 05:06:57;;;;;;;6.80;3.90;;;;;;;;;;5028024;28;20079;-76
2023/07/14 05:09:23;;;;;;;7.15;4.18;;;;;;;;;;5026186;28;20029;-77
2023/07/14 05:11:49;;;;;;;5.20;3.58;;;;;;;;;;5025502;28;20032;-78
2023/07/14 05:14:14;;;;;;;6.53;3.85;;;;;;;;;;5026987;28;20109;-76
2023/07/14 05:16:40;;;;;;;7.18;3.85;;;;;;;;;;5028601;28;20029;-76
2023/07/14 05:19:05;;;;;;;7.70;3.83;;;;;;;;;;5024522;28;20391;-75
2023/07/14 05:21:31;;;;;;;6.97;4.03;;;;;;;;;;5027322;28;20025;-76
2023/07/14 05:23:56;;;;;;;6.57;4.20;;;;;;;;;;5027809;28;20030;-75
2023/07/14 05:26:22;;;;;;;5.20;3.90;;;;;;;;;;5034867;28;20040;-76
2023/07/14 05:28:47;;;;;;;7.90;4.97;;;;;;;;;;5035910;28;20031;-76
2023/07/14 05:31:14;;;;;;;5.97;4.03;;;;;;;;;;5040240;28;20025;-75
2023/07/14 05:33:40;;;;;;;6.93;3.80;;;;;;;;;;5038154;28;20017;-75
2023/07/14 05:36:06;;;;;;;9.93;5.00;;;;;;;;;;5031791;28;20374;-76
2023/07/14 05:38:31;;;;;;;7.50;4.60;;;;;;;;;;5034367;28;20382;-75
2023/07/14 05:40:57;;;;;;;9.38;4.97;;;;;;;;;;5033276;28;20025;-75
2023/07/14 05:43:24;;;;;;;7.68;4.63;;;;;;;;;;5028955;28;20053;-76
2023/07/14 05:45:50;;;;;;;7.00;4.30;;;;;;;;;;5039689;28;20032;-76
2023/07/14 05:48:17;;;;;;;7.97;4.53;;;;;;;;;;5034665;28;20022;-76
2023/07/14 05:50:46;;;;;;;6.65;4.53;;;;;;;;;;5031996;28;20095;-75
2023/07/14 05:53:14;;;;;;;6.75;4.63;;;;;;;;;;5036221;28;20032;-76
2023/07/14 05:55:40;;;;;;;7.75;4.32;;;;;;;;;;5031866;28;20029;-76
2023/07/14 05:58:07;;;;;;;6.35;4.15;;;;;;;;;;5029897;28;20513;-75
2023/07/14 06:00:38;;;;;;;7.07;4.10;;;;;;;;;;5029708;28;20031;-75
2023/07/14 06:03:06;;;;;;;5.57;3.33;;;;;;;;;;5038940;28;20036;-76
2023/07/14 06:05:32;;;;;;;7.68;4.05;;;;;;;;;;5042174;28;20115;-75
2023/07/14 06:07:57;;;;;;;8.27;4.20;;;;;;;;;;5039315;28;20101;-76
2023/07/14 06:10:23;;;;;;;6.35;3.92;;;;;;;;;;5038780;28;20476;-76
2023/07/14 06:12:48;;;;;;;7.72;3.60;;;;;;;;;;5034817;28;20017;-76
2023/07/14 06:15:15;;;;;;;5.05;2.95;;;;;;;;;;5023165;28;20395;-76
2023/07/14 06:17:40;;;;;;;6.00;3.20;;;;;;;;;;5036950;28;20021;-76
2023/07/14 06:20:06;;;;;;;5.35;3.05;;;;;;;;;;5034969;28;20040;-75
2023/07/14 06:22:32;;;;;;;5.53;3.05;;;;;;;;;;5034497;28;20450;-76
2023/07/14 06:24:57;;;;;;;7.30;3.40;;;;;;;;;;5035542;28;20059;-76
2023/07/14 06:27:24;;;;;;;5.80;3.05;;;;;;;;;;5034377;28;20033;-76
2023/07/14 06:29:49;;;;;;;7.18;3.60;;;;;;;;;;5032521;28;20028;-76
2023/07/14 06:32:15;;;;;;;9.25;3.40;;;;;;;;;;5044652;28;20018;-77
2023/07/14 06:34:44;;;;;;;5.70;2.70;;;;;;;;;;5039041;28;20116;-76
2023/07/14 06:37:10;;;;;;;6.25;3.33;;;;;;;;;;5038316;28;20096;-76
2023/07/14 06:39:35;;;;;;;7.43;3.13;;;;;;;;;;5029938;28;20108;-75
2023/07/14 06:42:01;;;;;;;5.70;3.33;;;;;;;;;;5032211;28;20813;-76
2023/07/14 06:44:26;;;;;;;5.80;3.17;;;;;;;;;;5034102;28;20021;-75
2023/07/14 06:46:52;;;;;;;6.57;3.10;;;;;;;;;;5031364;28;20026;-75
2023/07/14 06:49:17;;;;;;;4.28;2.80;;;;;;;;;;5030101;28;20030;-76
2023/07/14 06:51:42;;;;;;;10.68;3.30;;;;;;;;;;5029154;28;21093;-75
2023/07/14 06:54:08;;;;;;;7.90;3.70;;;;;;;;;;5028540;28;20144;-75
2023/07/14 06:56:33;;;;;;;6.10;3.42;;;;;;;;;;5031960;28;20501;-76
2023/07/14 06:58:59;;;;;;;6.45;3.00;;;;;;;;;;5033033;28;20025;-76
2023/07/14 07:01:25;;;;;;;6.30;3.35;;;;;;;;;;5030831;28;20034;-75
2023/07/14 07:03:50;;;;;;;5.63;2.92;;;;;;;;;;5038466;28;20029;-75
2023/07/14 07:06:16;;;;;;;5.75;3.33;;;;;;;;;;5030042;28;20083;-75
2023/07/14 07:08:42;;;;;;;5.38;2.90;;;;;;;;;;5029918;28;20033;-75
2023/07/14 07:11:10;;;;;;;5.50;3.30;;;;;;;;;;5031032;28;20056;-75
2023/07/14 07:13:35;;;;;;;7.28;3.80;;;;;;;;;;5028945;28;20025;-76
2023/07/14 07:16:00;;;;;;;7.28;3.38;;;;;;;;;;5025542;28;20474;-76
2023/07/14 07:18:27;;;;;;;6.90;3.53;;;;;;;;;;5027039;28;20037;-74
2023/07/14 07:20:52;;;;;;;7.32;3.80;;;;;;;;;;5028209;28;20533;-75
2023/07/14 07:23:18;;;;;;;9.18;4.10;;;;;;;;;;5032404;28;20116;-74
2023/07/14 07:25:54;;;;;;;6.53;3.30;;;;;;;;;;5028281;28;20029;-74
2023/07/14 07:28:21;;;;;;;7.35;3.20;;;;;;;;;;5020703;28;20022;-76
2023/07/14 07:30:47;;;;;;;5.53;2.95;;;;;;;;;;5028498;28;20029;-84
2023/07/14 07:33:14;;;;;;;7.22;2.90;;;;;;;;;;5026249;28;20039;-74
2023/07/14 07:35:41;;;;;;;7.60;3.33;;;;;;;;;;5021078;28;20036;-75
2023/07/14 07:38:07;;;;;;;8.00;3.25;;;;;;;;;;5032047;28;20091;-75
2023/07/14 07:40:33;;;;;;;6.43;3.00;;;;;;;;;;5037498;28;20032;-75
2023/07/14 07:43:01;;;;;;;7.03;2.78;;;;;;;;;;5027884;28;20028;-74
2023/07/14 07:45:26;;;;;;;6.93;3.13;;;;;;;;;;5033896;28;20044;-76
2023/07/14 07:47:52;;;;;;;7.63;3.20;;;;;;;;;;5029110;28;20248;-75
2023/07/14 07:50:17;;;;;;;8.52;3.63;;;;;;;;;;5031952;28;20029;-74
2023/07/14 07:52:45;;;;;;;7.05;2.70;;;;;;;;;;5025874;28;20116;-77
2023/07/14 07:55:10;;;;;;;6.28;2.70;;;;;;;;;;5023796;28;20121;-76
2023/07/14 07:57:36;;;;;;;6.93;2.72;;;;;;;;;;5024457;28;20120;-75
2023/07/14 08:00:03;;;;;;;5.63;3.08;;;;;;;;;;5030493;28;20112;-76
2023/07/14 08:02:29;;;;;;;5.75;2.90;;;;;;;;;;5024043;28;20036;-75
2023/07/14 08:04:54;;;;;;;5.97;2.72;;;;;;;;;;5024623;28;20033;-76
2023/07/14 08:07:20;;;;;;;8.27;3.10;;;;;;;;;;5025811;28;20069;-75
2023/07/14 08:09:45;;;;;;;4.47;2.60;;;;;;;;;;5018513;28;20067;-76
2023/07/14 08:12:11;;;;;;;6.18;2.67;;;;;;;;;;5018544;28;20033;-77
2023/07/14 08:15:09;;;;;;;8.60;3.78;;;;;;;;;;5019904;28;20038;-76
2023/07/14 08:17:52;;;;;;;7.20;2.78;;;;;;;;;;4977255;28;20044;-77
2023/07/14 08:20:18;;;;;;;7.60;2.60;;;;;;;;;;5022649;28;20021;-75
2023/07/14 08:22:43;;;;;;;5.18;2.40;;;;;;;;;;5024719;28;20029;-75
2023/07/14 08:25:09;;;;;;;5.72;2.70;;;;;;;;;;5014334;28;20820;-76
2023/07/14 08:27:34;;;;;;;4.18;2.00;;;;;;;;;;5014786;28;20062;-77
2023/07/14 08:29:59;;;;;;;6.05;2.17;;;;;;;;;;5017419;28;20421;-77
2023/07/14 08:32:25;;;;;;;5.22;1.73;;;;;;;;;;5012832;28;20364;-76
2023/07/14 08:34:50;;;;;;;4.22;2.20;;;;;;;;;;5012655;28;20065;-76
2023/07/14 08:37:16;;;;;;;4.60;2.03;;;;;;;;;;5018016;28;20447;-75
2023/07/14 08:39:41;;;;;;;5.18;1.88;;;;;;;;;;5002790;28;20041;-76
2023/07/14 08:42:31;;;;;;;3.90;1.90;;;;;;;;;;5017017;28;20340;-75
2023/07/14 08:45:36;;;;;;;5.85;2.08;;;;;;;;;;5003456;28;20041;-75
2023/07/14 08:48:22;;;;;;;3.22;1.80;;;;;;;;;;4996188;28;20041;-76
2023/07/14 08:50:51;;;;;;;4.78;2.10;;;;;;;;;;5020514;28;20479;-77
2023/07/14 08:53:25;;;;;;;4.47;2.10;;;;;;;;;;5005484;28;20048;-74
2023/07/14 08:55:56;;;;;;;6.65;2.35;;;;;;;;;;5021381;28;20128;-76
2023/07/14 08:58:27;;;;;;;5.72;2.25;;;;;;;;;;5013565;28;20025;-75
2023/07/14 09:00:53;;;;;;;3.75;2.05;;;;;;;;;;5020755;28;20124;-75
2023/07/14 09:03:37;;;;;;;3.88;1.90;;;;;;;;;;5017839;28;20040;-78
2023/07/14 09:06:25;;;;;;;5.07;2.10;;;;;;;;;;5013993;28;20481;-76
2023/07/14 09:08:52;;;;;;;6.40;2.20;;;;;;;;;;5031151;28;20035;-75
2023/07/14 09:11:37;;;;;;;4.70;2.20;;;;;;;;;;5016305;28;20032;-75
2023/07/14 09:14:17;;;;;;;3.13;1.60;;;;;;;;;;5027201;28;20041;-77
2023/07/14 09:16:58;;;;;;;4.53;1.95;;;;;;;;;;5010963;28;20509;-78
2023/07/14 09:19:42;;;;;;;3.55;1.88;;;;;;;;;;5022903;28;20037;-78
2023/07/14 09:22:29;;;;;;;2.95;1.90;;;;;;;;;;5003530;28;20065;-81
2023/07/14 09:25:31;;;;;;;2.88;1.70;;;;;;;;;;5021034;28;20034;-80
2023/07/14 09:27:56;;;;;;;3.28;1.85;;;;;;;;;;5011648;28;20040;-82
2023/07/14 09:30:26;;;;;;;7.18;2.42;;;;;;;;;;5018832;28;20119;-82
2023/07/14 09:33:00;;;;;;;6.18;2.05;;;;;;;;;;5022734;28;20029;-78
2023/07/14 09:35:28;;;;;;;5.53;2.08;;;;;;;;;;5017081;28;20037;-81
2023/07/14 09:38:07;;;;;;;6.43;1.90;;;;;;;;;;5021243;28;20021;-83
2023/07/14 09:40:38;;;;;;;4.63;2.00;;;;;;;;;;5021743;28;20302;-82
2023/07/14 09:43:05;;;;;;;4.55;1.95;;;;;;;;;;5022587;28;20080;-83
2023/07/14 09:45:35;;;;;;;3.95;1.83;;;;;;;;;;5023732;28;20060;-83
2023/07/14 09:48:01;;;;;;;4.22;1.77;;;;;;;;;;5024306;28;20397;-77
2023/07/14 09:50:29;;;;;;;4.00;1.85;;;;;;;;;;5018359;28;20033;-85
2023/07/14 09:52:57;;;;;;;4.25;1.85;;;;;;;;;;5027997;28;20070;-81
2023/07/14 09:55:24;;;;;;;4.70;2.03;;;;;;;;;;5024370;28;20421;-83
2023/07/14 09:57:52;;;;;;;4.00;1.67;;;;;;;;;;5004352;28;20735;-83
2023/07/14 10:00:27;;;;;;;4.80;2.25;;;;;;;;;;5023156;28;20040;-84
2023/07/14 10:03:19;;;;;;;4.40;2.00;;;;;;;;;;5026449;28;20972;-82
2023/07/14 10:05:54;;;;;;;6.22;1.80;;;;;;;;;;5023833;28;20079;-82
2023/07/14 10:08:25;;;;;;;3.88;1.67;;;;;;;;;;5022136;28;20084;-80
2023/07/14 10:10:52;;;;;;;3.53;1.85;;;;;;;;;;5024062;28;20037;-79
2023/07/14 10:13:26;;;;;;;3.88;1.63;;;;;;;;;;5023518;28;20721;-85
2023/07/14 10:16:16;;;;;;;4.03;1.88;;;;;;;;;;5023438;28;20548;-82
2023/07/14 10:18:51;;;;;;;4.43;2.05;;;;;;;;;;5024152;28;20115;-81
2023/07/14 10:21:32;;;;;;;6.97;1.98;;;;;;;;;;5018248;28;20060;-81
2023/07/14 10:24:06;;;;;;;4.20;2.05;;;;;;;;;;5025143;28;20142;-79
2023/07/14 10:26:39;;;;;;;5.15;2.30;;;;;;;;;;5026292;28;20401;-78
2023/07/14 10:29:13;;;;;;;;;;;;;;;;;;5026634;28;20033;-81
2023/07/14 10:31:59;;;;;;;4.57;1.77;;;;;;;;;;5024918;28;19924;-79
2023/07/14 10:34:28;;;;;;;3.85;2.00;;;;;;;;;;5028405;28;20063;-79
2023/07/14 10:36:58;;;;;;;4.75;1.95;;;;;;;;;;5021564;28;20501;-83
2023/07/14 10:39:35;;;;;;;6.47;2.83;;;;;;;;;;5031640;28;20048;-86
2023/07/14 10:42:04;;;;;;;5.38;2.25;;;;;;;;;;5024045;28;20180;-82
2023/07/14 10:44:43;;;;;;;4.28;1.98;;;;;;;;;;5024672;28;20302;-86
2023/07/14 10:47:21;;;;;;;3.50;2.00;;;;;;;;;;5023529;28;20690;-84
2023/07/14 10:50:00;;;;;;;4.38;1.88;;;;;;;;;;5028711;28;20094;-86
2023/07/14 10:52:37;;;;;;;4.72;2.35;;;;;;;;;;5023044;28;20485;-85
2023/07/14 10:55:25;;;;;;;4.63;1.90;;;;;;;;;;5022478;28;20029;-84
2023/07/14 10:58:04;;;;;;;4.47;1.70;;;;;;;;;;5027584;28;20025;-86
2023/07/14 11:00:40;;;;;;;7.93;2.67;;;;;;;;;;5037933;28;20033;-85
2023/07/14 11:03:26;;;;;;;4.40;2.03;;;;;;;;;;5023120;28;20033;-82
2023/07/14 11:06:04;;;;;;;3.50;1.95;;;;;;;;;;5030997;28;20406;-81
2023/07/14 11:08:31;;;;;;;3.35;1.88;;;;;;;;;;5016297;28;20520;-83
2023/07/14 11:11:08;;;;;;;5.53;2.13;;;;;;;;;;5014003;28;20132;-84
2023/07/14 11:13:37;;;;;;;3.80;2.10;;;;;;;;;;5011013;28;20418;-84
2023/07/14 11:16:10;;;;;;;6.13;2.25;;;;;;;;;;5019512;28;20057;-82
2023/07/14 11:18:38;;;;;;;;;;;;;;;;;;5017556;28;20026;-86
2023/07/14 11:21:36;;;;;;;3.13;1.63;;;;;;;;;;5020247;28;19943;-79
2023/07/14 11:24:14;;;;;;;3.78;1.90;;;;;;;;;;5017274;28;21266;-85
2023/07/14 11:27:16;;;;;;;3.50;1.73;;;;;;;;;;5023871;28;20062;-84
2023/07/14 11:30:31;;;;;;;3.03;1.75;;;;;;;;;;5018348;28;20505;-85
2023/07/14 11:33:18;;;;;;;3.65;1.88;;;;;;;;;;5005415;28;20102;-86
2023/07/14 11:35:58;;;;;;;3.17;1.65;;;;;;;;;;5026777;28;20134;-82
2023/07/14 11:38:44;;;;;;;5.20;1.80;;;;;;;;;;5021909;28;20033;-85
2023/07/14 11:41:10;;;;;;;2.95;1.58;;;;;;;;;;5019518;28;20025;-84
2023/07/14 11:43:37;;;;;;;2.58;1.42;;;;;;;;;;5019498;28;20120;-85
2023/07/14 11:46:04;;;;;;;4.50;1.67;;;;;;;;;;5018571;28;20074;-81
2023/07/14 11:48:38;;;;;;;4.20;1.73;;;;;;;;;;5024464;28;20325;-85
2023/07/14 11:51:16;;;;;;;4.30;1.70;;;;;;;;;;5020174;28;20064;-85
2023/07/14 11:54:03;;;;;;;4.22;1.80;;;;;;;;;;5034550;28;20029;-85
2023/07/14 11:56:34;;;;;;;3.55;2.00;;;;;;;;;;5024731;28;20025;-78
2023/07/14 11:59:23;;;;;;;3.38;1.77;;;;;;;;;;5020158;28;20033;-80
2023/07/14 12:01:50;;;;;;;4.80;2.20;;;;;;;;;;5012438;28;20393;-87
2023/07/14 12:04:22;;;;;;;3.38;1.83;;;;;;;;;;5016796;28;20827;-82
2023/07/14 12:06:49;;;;;;;5.10;2.53;;;;;;;;;;5011674;28;20025;-84
2023/07/14 12:09:18;;;;;;;5.22;2.00;;;;;;;;;;5013143;28;20040;-86
2023/07/14 12:11:50;;;;;;;6.35;2.20;;;;;;;;;;5015183;28;20036;-84
2023/07/14 12:14:34;;;;;;;4.70;2.25;;;;;;;;;;5024480;28;20031;-85
2023/07/14 12:17:01;;;;;;;4.47;2.35;;;;;;;;;;5015292;28;20033;-88
2023/07/14 12:19:49;;;;;;;4.20;2.25;;;;;;;;;;5016069;28;20033;-87
2023/07/14 12:22:38;;;;;;;6.57;2.72;;;;;;;;;;5017808;28;20033;-83
2023/07/14 12:25:17;;;;;;;5.47;2.28;;;;;;;;;;5018542;28;20378;-79
2023/07/14 12:27:50;;;;;;;5.28;2.58;;;;;;;;;;5019128;28;20033;-80
2023/07/14 12:30:20;;;;;;;4.88;2.40;;;;;;;;;;5025211;28;20474;-82
2023/07/14 12:32:45;;;;;;;4.10;2.17;;;;;;;;;;5023811;28;20079;-85
2023/07/14 12:35:15;;;;;;;4.15;2.08;;;;;;;;;;5021930;28;20048;-88
2023/07/14 12:37:42;;;;;;;5.13;2.13;;;;;;;;;;5022487;28;20029;-88
2023/07/14 12:40:18;;;;;;;4.15;2.28;;;;;;;;;;5025296;28;20052;-81
2023/07/14 12:42:44;;;;;;;5.53;2.40;;;;;;;;;;5014945;28;20037;-79
2023/07/14 12:45:12;;;;;;;4.55;2.20;;;;;;;;;;5024228;28;20033;-87
2023/07/14 12:47:41;;;;;;;5.47;2.20;;;;;;;;;;5019217;28;20496;-87
2023/07/14 12:50:14;;;;;;;5.20;2.28;;;;;;;;;;5030281;28;20025;-87
2023/07/14 12:52:39;;;;;;;3.92;2.20;;;;;;;;;;5020058;28;20037;-81
2023/07/14 12:55:12;;;;;;;5.47;2.75;;;;;;;;;;5021840;28;20095;-89
2023/07/14 12:57:39;;;;;;;5.10;2.60;;;;;;;;;;5025565;28;20025;-88
2023/07/14 13:00:28;;;;;;;7.38;2.53;;;;;;;;;;5026162;28;20037;-87
2023/07/14 13:02:54;;;;;;;4.70;2.20;;;;;;;;;;5028802;28;20063;-87
2023/07/14 13:05:21;;;;;;;5.40;1.77;;;;;;;;;;5008086;28;20030;-90
2023/07/14 13:07:50;;;;;;;4.05;2.15;;;;;;;;;;5013007;28;20026;-86
2023/07/14 13:10:18;;;;;;;3.88;1.80;;;;;;;;;;5017426;28;20526;-80
2023/07/14 13:12:44;;;;;;;3.88;2.00;;;;;;;;;;5025245;28;20046;-85
2023/07/14 13:15:14;;;;;;;4.10;1.83;;;;;;;;;;5022912;28;20119;-86
2023/07/14 13:17:41;;;;;;;2.97;1.90;;;;;;;;;;5019830;28;20049;-89
2023/07/14 13:20:24;;;;;;;3.13;1.73;;;;;;;;;;5024271;28;20058;-83
2023/07/14 13:23:10;;;;;;;6.15;2.10;;;;;;;;;;5025656;28;20124;-86
2023/07/14 13:25:51;;;;;;;4.63;1.70;;;;;;;;;;5017677;28;20045;-85
2023/07/14 13:28:39;;;;;;;3.80;1.98;;;;;;;;;;5041506;28;20021;-86
2023/07/14 13:31:17;;;;;;;3.30;1.65;;;;;;;;;;5019754;28;20144;-84
2023/07/14 13:33:43;;;;;;;3.50;1.73;;;;;;;;;;5020564;28;20656;-87
2023/07/14 13:36:16;;;;;;;3.70;1.90;;;;;;;;;;5023302;28;20040;-83
2023/07/14 13:38:42;;;;;;;4.38;1.73;;;;;;;;;;5033412;28;20116;-83
2023/07/14 13:41:17;;;;;;;3.30;1.70;;;;;;;;;;5019117;28;20034;-84
2023/07/14 13:43:49;;;;;;;4.75;1.90;;;;;;;;;;5026281;28;20028;-87
2023/07/14 13:46:19;;;;;;;6.43;2.03;;;;;;;;;;5024144;28;20025;-87
2023/07/14 13:48:44;;;;;;;4.85;1.95;;;;;;;;;;5024687;28;20033;-84
2023/07/14 13:51:20;;;;;;;4.90;1.80;;;;;;;;;;5022507;28;20090;-85
2023/07/14 13:53:46;;;;;;;4.78;1.95;;;;;;;;;;5025472;28;20021;-87
2023/07/14 13:56:19;;;;;;;3.75;1.60;;;;;;;;;;5024307;28;20134;-83
2023/07/14 13:58:45;;;;;;;4.68;1.67;;;;;;;;;;5031285;28;20040;-86
2023/07/14 14:01:14;;;;;;;5.45;2.03;;;;;;;;;;5025146;28;20037;-78
2023/07/14 14:03:41;;;;;;;2.40;1.60;;;;;;;;;;4948980;28;20026;-87
2023/07/14 14:06:11;;;;;;;4.93;1.90;;;;;;;;;;5030525;28;20033;-86
2023/07/14 14:08:37;;;;;;;3.92;1.70;;;;;;;;;;5025659;28;20032;-86
2023/07/14 14:11:02;;;;;;;3.22;1.65;;;;;;;;;;5024032;28;20025;-86
2023/07/14 14:13:28;;;;;;;3.42;1.80;;;;;;;;;;5018465;28;20203;-87
2023/07/14 14:15:54;;;;;;;4.75;1.95;;;;;;;;;;5025017;28;20040;-89
2023/07/14 14:18:28;;;;;;;4.72;2.20;;;;;;;;;;5020736;28;20033;-84
2023/07/14 14:20:55;;;;;;;5.40;1.90;;;;;;;;;;5023532;28;20036;-80
2023/07/14 14:23:22;;;;;;;3.90;1.75;;;;;;;;;;5025634;28;20022;-84
2023/07/14 14:25:48;;;;;;;5.00;1.80;;;;;;;;;;5028424;28;20087;-84
2023/07/14 14:28:15;;;;;;;3.95;1.63;;;;;;;;;;5027857;28;20033;-80
2023/07/14 14:30:41;;;;;;;5.43;1.83;;;;;;;;;;5038626;28;20121;-86
2023/07/14 14:33:17;;;;;;;3.90;1.52;;;;;;;;;;5037254;28;20087;-86
2023/07/14 14:35:43;;;;;;;4.63;1.83;;;;;;;;;;5032856;28;20021;-84
2023/07/14 14:38:15;;;;;;;5.95;2.20;;;;;;;;;;5037549;28;20100;-84
2023/07/14 14:40:41;;;;;;;5.28;1.77;;;;;;;;;;5032505;28;20030;-83
2023/07/14 14:43:23;;;;;;;5.32;1.60;;;;;;;;;;5039628;28;20437;-83
2023/07/14 14:45:52;;;;;;;3.28;1.70;;;;;;;;;;5022415;28;20029;-84
2023/07/14 14:48:22;;;;;;;3.50;1.70;;;;;;;;;;5028632;28;20033;-89
2023/07/14 14:50:49;;;;;;;4.25;1.85;;;;;;;;;;5032636;28;20029;-87
2023/07/14 14:53:18;;;;;;;3.60;1.73;;;;;;;;;;5039466;28;20093;-83
2023/07/14 14:55:49;;;;;;;3.55;1.80;;;;;;;;;;5031776;28;20516;-80
2023/07/14 14:58:26;;;;;;;4.03;1.92;;;;;;;;;;5038853;28;20638;-82
2023/07/14 15:01:28;;;;;;;4.55;2.00;;;;;;;;;;5033037;28;20033;-84